Darstellungsparameter: Aktuell verwendete Einstellungen:
Skalierung der Graphiken ... ?
xyx+y,   Skalierungsfaktor:      Skalierung: Modus: x, Faktor: 1
Darstellungszeitraum ... ?
Vom - - bis: - -   Zeitraum: 23.09.2005 - 24.09.2005
Min/Max/Avg-Anzeige ... ?
Zeige MMA aktuell
Zeige MMA Monat
Zeige MMA alles
Zeige --A aktuell
Zeige --A Monat
Zeige --A alles
Keine MMA-Anzeige
MMA:
Average (ber die Originaldaten)
MMA-Basis: 23.09.2005 - 24.09.2005
Quicknavigation für Darstellung... ?
Tage:      1T, 2T, 3T, 5T -1T -2T -3T -5T +1T +2T +3T +5T
Wochen: 1W, 2W, 3W -1W -2W -3W +1W +2W +3W
Monate: 1M, 3M, 6M -1M -3M -6M +1M +3M +6M
Jahre:    1J, 3J, 5J, 10J -1J -3J -5J -10J +1J +3J +5J +10J
Nutze für die Darstellung ... ?
Originaldaten oder Mittelwerte auf ...
Stundenbasis Tagesbasis Wochenbasis
Monatsbasis Jahresbasis      Datenbasis: Original-Daten
Darstellen als:
Statistik (Auto) Statistik J:M      Darstellung:
Zur Graphik,    zurück zur Übersicht aller Sensoren.
 
Tabellarische Datenbersicht: ?
 
Sensor: Nr:Datum:Temp:Abs-Feuchte:Windchill:Wind:
Aussen-T/F 1 23-09-2005 00:07:01 12.1 C 8.26 g/m*3 12.1 C 0 km/h
2 23-09-2005 00:19:02 11.8 C 8.31 g/m*3 11.8 C 0 km/h
3 23-09-2005 00:31:02 11.7 C 8.37 g/m*3 11.7 C 0 km/h
4 23-09-2005 00:43:02 11.5 C 8.16 g/m*3 11.5 C 0 km/h
5 23-09-2005 00:55:02 11.5 C 8.16 g/m*3 11.5 C 0 km/h
6 23-09-2005 01:07:02 11.3 C 8.06 g/m*3 11.3 C 0 km/h
7 23-09-2005 01:19:02 11.2 C 8.11 g/m*3 11.2 C 0 km/h
8 23-09-2005 01:31:02 11.1 C 7.96 g/m*3 11.1 C 0 km/h
9 23-09-2005 01:43:02 10.8 C 8.01 g/m*3 10.8 C 0 km/h
10 23-09-2005 01:55:02 10.7 C 7.96 g/m*3 10.7 C 0 km/h
11 23-09-2005 02:07:02 10.6 C 8 g/m*3 10.6 C 0 km/h
12 23-09-2005 02:19:02 10.4 C 8 g/m*3 10.4 C 0 km/h
13 23-09-2005 02:31:02 10.5 C 8.05 g/m*3 10.5 C 0 km/h
14 23-09-2005 02:43:02 10.2 C 7.99 g/m*3 10.2 C 0 km/h
15 23-09-2005 02:56:04 10.1 C 7.94 g/m*3 10.1 C 0 km/h
16 23-09-2005 03:08:04 10 C 7.89 g/m*3 10 C 0 km/h
17 23-09-2005 03:20:03 9.9 C 7.94 g/m*3 9.9 C 0 km/h
18 23-09-2005 03:32:02 9.8 C 7.89 g/m*3 9.8 C 0 km/h
19 23-09-2005 03:44:02 9.7 C 7.84 g/m*3 9.7 C 0 km/h
20 23-09-2005 03:56:02 9.6 C 7.88 g/m*3 9.6 C 0 km/h
21 23-09-2005 04:08:02 9.4 C 7.78 g/m*3 9.4 C 0 km/h
22 23-09-2005 04:20:02 9.3 C 7.73 g/m*3 9.3 C 0 km/h
23 23-09-2005 04:32:02 9.2 C 7.68 g/m*3 9.2 C 0 km/h
24 23-09-2005 04:44:02 9 C 7.58 g/m*3 9 C 0 km/h
25 23-09-2005 04:56:02 8.9 C 7.62 g/m*3 8.9 C 0 km/h
Sensor: Nr:Datum:Temp:Abs-Feuchte:Windchill:Wind:
Aussen-T/F 26 23-09-2005 05:08:02 8.9 C 7.71 g/m*3 8.9 C 0 km/h
27 23-09-2005 05:20:02 8.8 C 7.66 g/m*3 8.8 C 0 km/h
28 23-09-2005 05:32:01 8.7 C 7.61 g/m*3 8.7 C 0 km/h
29 23-09-2005 05:44:01 8.6 C 7.56 g/m*3 8.6 C 0 km/h
30 23-09-2005 05:56:02 8.5 C 7.51 g/m*3 8.5 C 0 km/h
31 23-09-2005 06:08:02 8.4 C 7.47 g/m*3 8.4 C 0 km/h
32 23-09-2005 06:20:02 8.4 C 7.55 g/m*3 8.4 C 0 km/h
33 23-09-2005 06:32:02 8.1 C 7.41 g/m*3 8.1 C 0 km/h
34 23-09-2005 06:44:02 8.1 C 7.32 g/m*3 8.1 C 0 km/h
35 23-09-2005 06:56:01 8.1 C 7.41 g/m*3 8.1 C 0 km/h
36 23-09-2005 07:08:02 8.2 C 7.54 g/m*3 8.2 C 0 km/h
37 23-09-2005 07:20:02 8.2 C 7.54 g/m*3 8.2 C 0 km/h
38 23-09-2005 07:32:01 8.4 C 7.72 g/m*3 8.4 C 0 km/h
39 23-09-2005 07:44:01 8.5 C 7.68 g/m*3 8.5 C 0 km/h
40 23-09-2005 07:56:02 8.5 C 7.68 g/m*3 8.5 C 0 km/h
41 23-09-2005 08:08:01 8.5 C 7.6 g/m*3 8.5 C 0 km/h
42 23-09-2005 08:20:01 8.5 C 7.6 g/m*3 8.5 C 0 km/h
43 23-09-2005 08:32:02 8.6 C 7.65 g/m*3 8.6 C 0 km/h
44 23-09-2005 08:44:02 8.9 C 7.71 g/m*3 8.9 C 0 km/h
45 23-09-2005 08:56:02 9.1 C 7.72 g/m*3 9.1 C 0 km/h
46 23-09-2005 09:08:02 9.2 C 7.59 g/m*3 9.2 C 0 km/h
47 23-09-2005 09:20:03 9.6 C 7.79 g/m*3 9.6 C 0 km/h
48 23-09-2005 09:32:02 10 C 7.8 g/m*3 10 C 0 km/h
49 23-09-2005 09:44:02 9.7 C 7.65 g/m*3 9.7 C 0 km/h
50 23-09-2005 09:56:02 9.9 C 7.84 g/m*3 9.9 C 0 km/h
Sensor: Nr:Datum:Temp:Abs-Feuchte:Windchill:Wind:
Aussen-T/F 51 23-09-2005 10:08:01 10.2 C 7.9 g/m*3 10.2 C 0 km/h
52 23-09-2005 10:20:02 10.1 C 7.85 g/m*3 10.1 C 0 km/h
53 23-09-2005 10:32:02 10.4 C 8.1 g/m*3 10.4 C 0 km/h
54 23-09-2005 10:44:03 11.1 C 8.56 g/m*3 11.1 C 0 km/h
55 23-09-2005 10:56:02 11.7 C 8.68 g/m*3 11.7 C 0 km/h
56 23-09-2005 11:08:02 12.4 C 8.85 g/m*3 12.4 C 0 km/h
57 23-09-2005 11:20:02 13.1 C 8.9 g/m*3 13.1 C 0 km/h
58 23-09-2005 11:32:02 13.6 C 9.06 g/m*3 13.6 C 0 km/h
59 23-09-2005 11:44:02 14.2 C 9.16 g/m*3 14.2 C 0 km/h
60 23-09-2005 11:56:02 14.7 C 9.44 g/m*3 14.7 C 0 km/h
61 23-09-2005 12:08:01 15.4 C 9.59 g/m*3 15.4 C 0 km/h
62 23-09-2005 12:20:02 15.7 C 9.63 g/m*3 15.7 C 0 km/h
63 23-09-2005 12:32:02 16.3 C 9.85 g/m*3 16.3 C 0 km/h
64 23-09-2005 12:44:02 17 C 9.84 g/m*3 17 C 0 km/h
65 23-09-2005 12:56:02 17.5 C 10.14 g/m*3 17.5 C 0 km/h
66 23-09-2005 13:08:02 18.1 C 10.2 g/m*3 18.1 C 0 km/h
67 23-09-2005 13:20:02 18.8 C 10.31 g/m*3 18.8 C 0 km/h
68 23-09-2005 13:32:02 19.5 C 9.73 g/m*3 19.5 C 0 km/h
69 23-09-2005 13:44:02 20 C 9.85 g/m*3 20 C 0 km/h
70 23-09-2005 13:56:02 20.7 C 10.08 g/m*3 20.7 C 0 km/h
71 23-09-2005 14:08:02 20.2 C 9.79 g/m*3 20.2 C 0 km/h
72 23-09-2005 14:20:02 20.7 C 10.08 g/m*3 20.7 C 0 km/h
73 23-09-2005 14:32:02 21.5 C 10.56 g/m*3 21.5 C 0 km/h
74 23-09-2005 14:44:02 22.4 C 10.13 g/m*3 22.4 C 0 km/h
75 23-09-2005 14:56:01 23.2 C 9.98 g/m*3 23.2 C 0 km/h
Sensor: Nr:Datum:Temp:Abs-Feuchte:Windchill:Wind:
Aussen-T/F 76 23-09-2005 15:08:01 23.7 C 8.77 g/m*3 23.7 C 0 km/h
77 23-09-2005 15:20:02 24.4 C 8.01 g/m*3 24.4 C 0 km/h
78 23-09-2005 15:32:01 24.8 C 8.19 g/m*3 24.8 C 0 km/h
79 23-09-2005 15:44:02 24.4 C 8.01 g/m*3 24.4 C 0 km/h
80 23-09-2005 15:56:02 24.5 C 7.61 g/m*3 24.5 C 0 km/h
81 23-09-2005 16:08:02 25.9 C 8.72 g/m*3 25.9 C 0 km/h
82 23-09-2005 16:20:02 24.7 C 7.47 g/m*3 24.7 C 0 km/h
83 23-09-2005 16:32:02 24.9 C 8.01 g/m*3 24.9 C 0 km/h
84 23-09-2005 16:44:02 24.8 C 7.74 g/m*3 24.8 C 0 km/h
85 23-09-2005 16:56:02 24.5 C 7.83 g/m*3 24.5 C 0 km/h
86 23-09-2005 17:08:02 24.7 C 8.15 g/m*3 24.7 C 0 km/h
87 23-09-2005 17:20:02 24.1 C 7.88 g/m*3 24.1 C 0 km/h
88 23-09-2005 17:32:02 24.3 C 7.3 g/m*3 24.3 C 0 km/h
89 23-09-2005 17:44:02 24.1 C 7.22 g/m*3 24.1 C 0 km/h
90 23-09-2005 17:56:01 24.1 C 7.66 g/m*3 24.1 C 0 km/h
91 23-09-2005 18:08:01 24.3 C 7.97 g/m*3 24.3 C 0 km/h
92 23-09-2005 18:20:02 24.1 C 7.66 g/m*3 24.1 C 0 km/h
93 23-09-2005 18:32:01 23.7 C 8.13 g/m*3 23.7 C 0 km/h
94 23-09-2005 18:44:01 22.9 C 7.97 g/m*3 22.9 C 0 km/h
95 23-09-2005 18:56:02 21.5 C 7.92 g/m*3 21.5 C 0 km/h
96 23-09-2005 19:08:01 20.8 C 7.97 g/m*3 20.8 C 0 km/h
97 23-09-2005 19:20:02 20 C 7.95 g/m*3 20 C 0 km/h
98 23-09-2005 19:32:02 19.3 C 8.13 g/m*3 19.3 C 0 km/h
99 23-09-2005 19:44:02 18.6 C 8.44 g/m*3 18.6 C 0 km/h
100 23-09-2005 19:56:02 18.3 C 8.44 g/m*3 18.3 C 0 km/h
Sensor: Nr:Datum:Temp:Abs-Feuchte:Windchill:Wind:
Aussen-T/F 101 23-09-2005 20:08:02 18.2 C 8.24 g/m*3 18.2 C 0 km/h
102 23-09-2005 20:20:02 18 C 8.29 g/m*3 18 C 0 km/h
103 23-09-2005 20:32:02 17.8 C 8.5 g/m*3 17.8 C 0 km/h
104 23-09-2005 20:44:02 17.7 C 8.45 g/m*3 17.7 C 0 km/h
105 23-09-2005 20:56:02 17.2 C 8.49 g/m*3 17.2 C 0 km/h
106 23-09-2005 21:08:01 16.9 C 8.77 g/m*3 16.9 C 0 km/h
107 23-09-2005 21:20:02 16.3 C 8.74 g/m*3 16.3 C 0 km/h
108 23-09-2005 21:32:02 16 C 8.86 g/m*3 16 C 0 km/h
109 23-09-2005 21:44:02 15.6 C 8.78 g/m*3 15.6 C 0 km/h
110 23-09-2005 21:56:02 15.5 C 8.86 g/m*3 15.5 C 0 km/h
111 23-09-2005 22:08:02 15.1 C 8.64 g/m*3 15.1 C 0 km/h
112 23-09-2005 22:20:02 15.1 C 8.64 g/m*3 15.1 C 0 km/h
113 23-09-2005 22:32:02 15 C 8.72 g/m*3 15 C 0 km/h
114 23-09-2005 22:44:02 14.7 C 8.69 g/m*3 14.7 C 0 km/h
115 23-09-2005 22:56:01 14.5 C 8.71 g/m*3 14.5 C 0 km/h
116 23-09-2005 23:08:01 14.2 C 8.67 g/m*3 14.2 C 0 km/h
117 23-09-2005 23:20:02 14.1 C 8.74 g/m*3 14.1 C 0 km/h
118 23-09-2005 23:32:01 13.9 C 8.87 g/m*3 13.9 C 0 km/h
119 23-09-2005 23:44:01 13.7 C 8.76 g/m*3 13.7 C 0 km/h
120 23-09-2005 23:56:02 13.5 C 8.77 g/m*3 13.5 C 0 km/h
121 24-09-2005 00:08:02 13.4 C 8.95 g/m*3 13.4 C 0 km/h
122 24-09-2005 00:20:03 13.1 C 8.9 g/m*3 13.1 C 0 km/h
123 24-09-2005 00:32:02 12.8 C 8.74 g/m*3 12.8 C 0 km/h
124 24-09-2005 00:44:02 12.8 C 8.85 g/m*3 12.8 C 0 km/h
125 24-09-2005 00:56:02 12.8 C 8.85 g/m*3 12.8 C 0 km/h
Sensor: Nr:Datum:Temp:Abs-Feuchte:Windchill:Wind:
Aussen-T/F 126 24-09-2005 01:08:02 12.5 C 8.69 g/m*3 12.5 C 0 km/h
127 24-09-2005 01:20:02 12.4 C 8.74 g/m*3 12.4 C 0 km/h
128 24-09-2005 01:32:02 12.1 C 8.69 g/m*3 12.1 C 0 km/h
129 24-09-2005 01:44:02 11.9 C 8.58 g/m*3 11.9 C 0 km/h
130 24-09-2005 01:56:03 11.9 C 8.68 g/m*3 11.9 C 0 km/h
131 24-09-2005 02:08:03 11.8 C 8.74 g/m*3 11.8 C 0 km/h
132 24-09-2005 02:20:03 11.8 C 8.84 g/m*3 11.8 C 0 km/h
133 24-09-2005 02:32:02 11.7 C 8.79 g/m*3 11.7 C 0 km/h
134 24-09-2005 02:44:02 11.5 C 8.57 g/m*3 11.5 C 0 km/h
135 24-09-2005 02:57:04 11.4 C 8.62 g/m*3 11.4 C 0 km/h
136 24-09-2005 03:09:04 11.1 C 8.46 g/m*3 11.1 C 0 km/h
137 24-09-2005 03:21:04 11 C 8.51 g/m*3 11 C 0 km/h
138 24-09-2005 03:33:03 10.8 C 8.4 g/m*3 10.8 C 0 km/h
139 24-09-2005 03:45:03 10.9 C 8.55 g/m*3 10.9 C 0 km/h
140 24-09-2005 03:57:03 10.7 C 8.45 g/m*3 10.7 C 0 km/h
141 24-09-2005 04:09:03 10.5 C 8.34 g/m*3 10.5 C 0 km/h
142 24-09-2005 04:21:03 10.5 C 8.44 g/m*3 10.5 C 0 km/h
143 24-09-2005 04:33:03 10.5 C 8.44 g/m*3 10.5 C 0 km/h
144 24-09-2005 04:45:03 10.4 C 8.38 g/m*3 10.4 C 0 km/h
145 24-09-2005 04:57:03 10.4 C 8.38 g/m*3 10.4 C 0 km/h
146 24-09-2005 05:09:03 10.4 C 8.38 g/m*3 10.4 C 0 km/h
147 24-09-2005 05:21:02 10.2 C 8.28 g/m*3 10.2 C 0 km/h
148 24-09-2005 05:33:02 10.2 C 8.37 g/m*3 10.2 C 0 km/h
149 24-09-2005 05:45:01 10.1 C 8.23 g/m*3 10.1 C 0 km/h
150 24-09-2005 05:57:01 10 C 8.27 g/m*3 10 C 0 km/h
Sensor: Nr:Datum:Temp:Abs-Feuchte:Windchill:Wind:
Aussen-T/F 151 24-09-2005 06:09:02 10 C 8.27 g/m*3 10 C 0 km/h
152 24-09-2005 06:21:02 9.9 C 8.31 g/m*3 9.9 C 0 km/h
153 24-09-2005 06:33:02 9.8 C 8.26 g/m*3 9.8 C 0 km/h
154 24-09-2005 06:45:02 9.7 C 8.2 g/m*3 9.7 C 0 km/h
155 24-09-2005 06:57:02 9.7 C 8.2 g/m*3 9.7 C 0 km/h
156 24-09-2005 07:09:02 9.9 C 8.4 g/m*3 9.9 C 0 km/h
157 24-09-2005 07:21:02 10 C 8.27 g/m*3 10 C 0 km/h
158 24-09-2005 07:33:02 10.3 C 8.43 g/m*3 10.3 C 0 km/h
159 24-09-2005 07:45:02 10.5 C 8.44 g/m*3 10.5 C 0 km/h
160 24-09-2005 07:57:02 10.6 C 8.49 g/m*3 10.6 C 0 km/h
161 24-09-2005 08:09:02 10.7 C 8.45 g/m*3 10.7 C 0 km/h
162 24-09-2005 08:21:02 10.8 C 8.5 g/m*3 10.8 C 0 km/h
163 24-09-2005 08:33:02 11.1 C 8.56 g/m*3 11.1 C 0 km/h
164 24-09-2005 08:45:02 11.5 C 8.68 g/m*3 11.5 C 0 km/h
165 24-09-2005 08:57:02 11.7 C 8.68 g/m*3 11.7 C 0 km/h
166 24-09-2005 09:09:02 11.8 C 8.74 g/m*3 11.8 C 0 km/h
167 24-09-2005 09:21:02 12.1 C 8.79 g/m*3 12.1 C 0 km/h
168 24-09-2005 09:33:02 12.5 C 8.8 g/m*3 12.5 C 0 km/h
169 24-09-2005 09:45:02 12.5 C 8.58 g/m*3 12.5 C 0 km/h
170 24-09-2005 09:57:02 12.4 C 8.63 g/m*3 12.4 C 0 km/h
171 24-09-2005 10:09:02 12.4 C 8.85 g/m*3 12.4 C 0 km/h
172 24-09-2005 10:21:01 12.7 C 9.02 g/m*3 12.7 C 0 km/h
173 24-09-2005 10:33:02 13.4 C 9.07 g/m*3 13.4 C 0 km/h
174 24-09-2005 10:45:02 14.3 C 8.97 g/m*3 14.3 C 0 km/h
175 24-09-2005 10:57:02 15 C 8.98 g/m*3 15 C 0 km/h
Sensor: Nr:Datum:Temp:Abs-Feuchte:Windchill:Wind:
Aussen-T/F 176 24-09-2005 11:09:02 15.2 C 8.83 g/m*3 15.2 C 0 km/h
177 24-09-2005 11:21:03 15.1 C 8.9 g/m*3 15.1 C 0 km/h
178 24-09-2005 11:33:02 15.5 C 9.25 g/m*3 15.5 C 0 km/h
179 24-09-2005 11:45:02 15.8 C 9.29 g/m*3 15.8 C 0 km/h
180 24-09-2005 11:57:02 16.6 C 9.61 g/m*3 16.6 C 0 km/h
181 24-09-2005 12:09:02 17.1 C 9.75 g/m*3 17.1 C 0 km/h
182 24-09-2005 12:21:02 17.6 C 10.05 g/m*3 17.6 C 0 km/h
183 24-09-2005 12:33:02 18.1 C 10.04 g/m*3 18.1 C 0 km/h
184 24-09-2005 12:45:02 18.7 C 10.09 g/m*3 18.7 C 0 km/h
185 24-09-2005 12:57:02 18.8 C 10.31 g/m*3 18.8 C 0 km/h
186 24-09-2005 13:09:02 19.3 C 10.12 g/m*3 19.3 C 0 km/h
187 24-09-2005 13:21:02 20 C 10.02 g/m*3 20 C 0 km/h
188 24-09-2005 13:33:02 20.6 C 10.02 g/m*3 20.6 C 0 km/h
189 24-09-2005 13:45:02 21.3 C 10.07 g/m*3 21.3 C 0 km/h
190 24-09-2005 13:57:02 21.7 C 10.11 g/m*3 21.7 C 0 km/h
191 24-09-2005 14:09:02 22.1 C 9.76 g/m*3 22.1 C 0 km/h
192 24-09-2005 14:21:02 22.2 C 9.42 g/m*3 22.2 C 0 km/h
193 24-09-2005 14:33:02 22.6 C 9.64 g/m*3 22.6 C 0 km/h
194 24-09-2005 14:45:02 23.4 C 9.46 g/m*3 23.4 C 0 km/h
195 24-09-2005 14:57:02 23 C 9.04 g/m*3 23 C 0 km/h
196 24-09-2005 15:09:02 22.3 C 9.87 g/m*3 22.3 C 0 km/h
197 24-09-2005 15:21:02 22.1 C 10.15 g/m*3 22.1 C 0 km/h
198 24-09-2005 15:33:02 22 C 10.09 g/m*3 22 C 0 km/h
199 24-09-2005 15:45:02 23.2 C 9.77 g/m*3 23.2 C 0 km/h
200 24-09-2005 15:57:02 23.3 C 9.2 g/m*3 23.3 C 0 km/h
Sensor: Nr:Datum:Temp:Abs-Feuchte:Windchill:Wind:
Aussen-T/F 201 24-09-2005 16:09:03 24.1 C 9.41 g/m*3 24.1 C 0 km/h
202 24-09-2005 16:21:02 24.5 C 9.18 g/m*3 24.5 C 0 km/h
203 24-09-2005 16:33:02 24.7 C 9.28 g/m*3 24.7 C 0 km/h
204 24-09-2005 16:45:02 24.2 C 9.68 g/m*3 24.2 C 0 km/h
205 24-09-2005 16:57:02 23.6 C 9.78 g/m*3 23.6 C 0 km/h
206 24-09-2005 17:09:02 23.3 C 9.83 g/m*3 23.3 C 0 km/h
207 24-09-2005 17:21:02 22.8 C 9.96 g/m*3 22.8 C 0 km/h
208 24-09-2005 17:33:02 22.9 C 10.01 g/m*3 22.9 C 0 km/h
209 24-09-2005 17:45:02 23.1 C 9.92 g/m*3 23.1 C 0 km/h
210 24-09-2005 17:57:02 22.7 C 9.9 g/m*3 22.7 C 0 km/h
211 24-09-2005 18:09:02 22.2 C 9.82 g/m*3 22.2 C 0 km/h
212 24-09-2005 18:21:02 22.3 C 10.07 g/m*3 22.3 C 0 km/h
213 24-09-2005 18:33:02 22 C 9.9 g/m*3 22 C 0 km/h
214 24-09-2005 18:45:02 21.7 C 10.11 g/m*3 21.7 C 0 km/h
215 24-09-2005 18:57:02 21 C 10.26 g/m*3 21 C 0 km/h
216 24-09-2005 19:09:02 20.3 C 10.38 g/m*3 20.3 C 0 km/h
217 24-09-2005 19:21:01 19.7 C 10.36 g/m*3 19.7 C 0 km/h
218 24-09-2005 19:33:02 19.3 C 10.28 g/m*3 19.3 C 0 km/h
219 24-09-2005 19:45:02 18.8 C 10.47 g/m*3 18.8 C 0 km/h
220 24-09-2005 19:57:02 18.5 C 10.44 g/m*3 18.5 C 0 km/h
221 24-09-2005 20:09:01 18.3 C 10.32 g/m*3 18.3 C 0 km/h
222 24-09-2005 20:21:02 18.4 C 10.22 g/m*3 18.4 C 0 km/h
223 24-09-2005 20:33:02 18.3 C 10.32 g/m*3 18.3 C 0 km/h
224 24-09-2005 20:45:02 18 C 10.14 g/m*3 18 C 0 km/h
225 24-09-2005 20:57:02 17.9 C 10.38 g/m*3 17.9 C 0 km/h
Sensor: Nr:Datum:Temp:Abs-Feuchte:Windchill:Wind:
Aussen-T/F 226 24-09-2005 21:09:02 17.9 C 10.54 g/m*3 17.9 C 0 km/h
227 24-09-2005 21:21:02 17.3 C 10.31 g/m*3 17.3 C 0 km/h
228 24-09-2005 21:33:02 17.1 C 10.19 g/m*3 17.1 C 0 km/h
229 24-09-2005 21:45:02 17.1 C 10.34 g/m*3 17.1 C 0 km/h
230 24-09-2005 21:57:02 17.1 C 10.34 g/m*3 17.1 C 0 km/h
231 24-09-2005 22:09:01 16.9 C 10.5 g/m*3 16.9 C 0 km/h
232 24-09-2005 22:21:02 16.9 C 10.5 g/m*3 16.9 C 0 km/h
233 24-09-2005 22:33:02 16.8 C 10.44 g/m*3 16.8 C 0 km/h
234 24-09-2005 22:45:02 16.9 C 10.64 g/m*3 16.9 C 0 km/h
235 24-09-2005 22:57:02 16.8 C 10.58 g/m*3 16.8 C 0 km/h
236 24-09-2005 23:09:02 16.8 C 10.58 g/m*3 16.8 C 0 km/h
237 24-09-2005 23:21:02 16.7 C 10.52 g/m*3 16.7 C 0 km/h
238 24-09-2005 23:33:02 16.6 C 10.59 g/m*3 16.6 C 0 km/h
239 24-09-2005 23:45:02 16.6 C 10.59 g/m*3 16.6 C 0 km/h
240 24-09-2005 23:57:02 16.5 C 10.53 g/m*3 16.5 C 0 km/h

Legende:
   Min
   Max


Maximal/Minimal-Werte vom 23.09.2005 - 24.09.2005

Sensor Min Max Avg
Temp
(Aussen-T/F)
8.1 °C
23-09-2005  06:32:02
25.9 °C
23-09-2005  16:08:02
15.39 °C
Abs-Feuchte
(Aussen-T/F)
7.22 g/m*3
23-09-2005  17:44:02
10.64 g/m*3
24-09-2005  22:45:02
8.8 g/m*3
Windchill
(Aussen-T/F)
8.1 C
23-09-2005  06:32:02
25.9 C
23-09-2005  16:08:02
15.32 C

Die Daten stammen von einer Davis Vantage Pro 2 Wetter-Station und werden unter Linux mit der Software wview2wettercgi und aufbereitet. Alle Angaben erfolgen ohne Gewähr für ihre Vollständigkeit oder Richtigkeit.
Kontakt: Rainer Krienke krienke@uni-koblenz.de . Meine Webseiten an der Uni Koblenz oder privat.
Version: $Revision: 0.78 $